📊 John's Weather Station

Last reading: 2021-03-02 02:00:40

TEMPERATURE

--

Temperature 20 readings
Min Max Average
24.89 °C 26.17 °C 25.53 °C

HUMIDITY

--

Humidity 20 readings
Min Max Average
54.50 % 54.91 % 54.74 %

View Latest 20 Readings

ID Sensor Location Temp Humid Bar Timestamp
53718 BME280 Lounge 24.89 54.87 1008.77 2021-03-02 02:00:40
53717 BME280 Lounge 24.93 54.91 1008.77 2021-03-02 01:50:33
53716 BME280 Lounge 25.04 54.81 1008.88 2021-03-02 01:40:26
53715 BME280 Lounge 25.09 54.84 1008.96 2021-03-02 01:30:20
53714 BME280 Lounge 25.15 54.85 1008.98 2021-03-02 01:20:13
53713 BME280 Lounge 25.23 54.81 1009.00 2021-03-02 01:10:07
53712 BME280 Lounge 25.31 54.81 1009.16 2021-03-02 01:00:01
53711 BME280 Lounge 25.39 54.76 1009.12 2021-03-02 00:49:54
53710 BME280 Lounge 25.46 54.78 1009.10 2021-03-02 00:39:53
53709 BME280 Lounge 25.52 54.75 1009.07 2021-03-02 00:29:52
53708 BME280 Lounge 25.56 54.80 1009.08 2021-03-02 00:19:51
53707 BME280 Lounge 25.64 54.79 1009.16 2021-03-02 00:09:49
53706 BME280 Lounge 25.70 54.75 1009.04 2021-03-01 23:59:48
53705 BME280 Lounge 25.76 54.72 1009.04 2021-03-01 23:49:47
53704 BME280 Lounge 25.82 54.67 1008.96 2021-03-01 23:39:46
53703 BME280 Lounge 25.88 54.68 1008.93 2021-03-01 23:29:45
53702 BME280 Lounge 25.96 54.62 1008.83 2021-03-01 23:19:44
53701 BME280 Lounge 26.03 54.56 1008.81 2021-03-01 23:09:42
53700 BME280 Lounge 26.10 54.50 1008.81 2021-03-01 22:59:41
53699 BME280 Lounge 26.17 54.51 1008.72 2021-03-01 22:49:40